Time;durP1;ratioP1;P1;durP2;ratioP2;P2;SDS_P1;SDS_P2;PMS_P1;PMS_P2;Temp;Humidity;BMP_temperature;BMP_pressure;BME280_temperature;BME280_humidity;BME280_pressure;Samples;Min_cycle;Max_cycle;Signal;HPM_P1;HPM_P2
2023/08/19 00:00:55;;;;;;;13.60;7.75;;;;;;;;;;5012588;28;20042;-79
2023/08/19 00:03:22;;;;;;;16.95;8.88;;;;;;;;;;5029705;28;20490;-79
2023/08/19 00:05:49;;;;;;;13.98;8.45;;;;;;;;;;5006698;28;20130;-79
2023/08/19 00:08:15;;;;;;;13.32;8.75;;;;;;;;;;5004279;28;20053;-81
2023/08/19 00:10:43;;;;;;;13.45;8.15;;;;;;;;;;5021170;28;20050;-80
2023/08/19 00:13:09;;;;;;;14.98;9.18;;;;;;;;;;5004498;28;20117;-79
2023/08/19 00:15:36;;;;;;;12.95;8.68;;;;;;;;;;5007770;28;20522;-79
2023/08/19 00:18:03;;;;;;;12.48;8.35;;;;;;;;;;5002819;28;20966;-80
2023/08/19 00:20:30;;;;;;;12.07;8.02;;;;;;;;;;5003628;28;20073;-80
2023/08/19 00:22:57;;;;;;;14.20;8.73;;;;;;;;;;5009895;28;20086;-79
2023/08/19 00:25:24;;;;;;;12.63;8.63;;;;;;;;;;5025761;28;20045;-79
2023/08/19 00:27:54;;;;;;;14.30;8.95;;;;;;;;;;5020301;28;20044;-81
2023/08/19 00:30:22;;;;;;;11.32;8.40;;;;;;;;;;5022512;28;20483;-79
2023/08/19 00:32:51;;;;;;;13.63;8.93;;;;;;;;;;5008395;28;20057;-80
2023/08/19 00:35:18;;;;;;;12.02;8.82;;;;;;;;;;5022126;28;20087;-78
2023/08/19 00:37:45;;;;;;;12.60;8.80;;;;;;;;;;5030269;28;20057;-80
2023/08/19 00:40:13;;;;;;;12.82;8.55;;;;;;;;;;5024734;28;20045;-79
2023/08/19 00:42:40;;;;;;;14.25;9.20;;;;;;;;;;5016434;28;20132;-79
2023/08/19 00:45:08;;;;;;;12.75;8.50;;;;;;;;;;5041194;28;20062;-80
2023/08/19 00:47:35;;;;;;;12.95;9.15;;;;;;;;;;5029400;28;20049;-78
2023/08/19 00:50:04;;;;;;;16.20;10.38;;;;;;;;;;5013310;28;20058;-79
2023/08/19 00:52:32;;;;;;;15.82;9.15;;;;;;;;;;4986637;28;20050;-79
2023/08/19 00:54:58;;;;;;;14.60;9.27;;;;;;;;;;5017499;28;20552;-79
2023/08/19 00:57:28;;;;;;;16.02;9.45;;;;;;;;;;4991332;28;20102;-78
2023/08/19 00:59:56;;;;;;;15.18;9.48;;;;;;;;;;5020911;28;20053;-78
2023/08/19 01:02:22;;;;;;;14.25;9.85;;;;;;;;;;5009257;28;20049;-79
2023/08/19 01:04:55;;;;;;;13.85;9.52;;;;;;;;;;5018493;28;20748;-79
2023/08/19 01:07:43;;;;;;;13.35;9.90;;;;;;;;;;5002780;28;20053;-79
2023/08/19 01:10:22;;;;;;;15.15;9.85;;;;;;;;;;5004015;28;20061;-79
2023/08/19 01:13:09;;;;;;;13.65;9.57;;;;;;;;;;5007164;28;21125;-77
2023/08/19 01:15:41;;;;;;;17.45;10.68;;;;;;;;;;5008589;28;20358;-79
2023/08/19 01:18:09;;;;;;;18.00;11.07;;;;;;;;;;5024860;28;20062;-78
2023/08/19 01:20:39;;;;;;;14.82;9.98;;;;;;;;;;5011545;28;20109;-79
2023/08/19 01:23:11;;;;;;;16.77;9.75;;;;;;;;;;5011355;28;20183;-80
2023/08/19 01:25:38;;;;;;;14.30;9.35;;;;;;;;;;4999390;28;20749;-80
2023/08/19 01:28:04;;;;;;;14.05;9.80;;;;;;;;;;5005415;28;20050;-79
2023/08/19 01:30:33;;;;;;;14.93;9.70;;;;;;;;;;4999467;28;20502;-80
2023/08/19 01:33:04;;;;;;;14.80;10.02;;;;;;;;;;5017220;28;20053;-79
2023/08/19 01:35:45;;;;;;;15.85;9.88;;;;;;;;;;4990916;28;20055;-80
2023/08/19 01:38:35;;;;;;;13.70;9.35;;;;;;;;;;4995509;28;20042;-79
2023/08/19 01:41:03;;;;;;;15.85;10.80;;;;;;;;;;4989699;28;20562;-78
2023/08/19 01:43:31;;;;;;;14.52;9.40;;;;;;;;;;4975758;28;20066;-79
2023/08/19 01:45:58;;;;;;;13.77;9.60;;;;;;;;;;4988569;28;20043;-80
2023/08/19 01:48:25;;;;;;;17.77;9.80;;;;;;;;;;5025765;28;20207;-80
2023/08/19 01:50:51;;;;;;;14.80;9.70;;;;;;;;;;5001256;28;20063;-79
2023/08/19 01:53:18;;;;;;;13.60;10.00;;;;;;;;;;4992469;28;20097;-80
2023/08/19 01:55:45;;;;;;;15.07;10.20;;;;;;;;;;5002921;28;20061;-80
2023/08/19 01:58:19;;;;;;;15.25;10.00;;;;;;;;;;4993266;28;20046;-78
2023/08/19 02:00:46;;;;;;;14.57;10.05;;;;;;;;;;4990663;28;20054;-79
2023/08/19 02:03:12;;;;;;;14.77;10.00;;;;;;;;;;4991458;28;20057;-80
2023/08/19 02:05:39;;;;;;;19.83;10.07;;;;;;;;;;4994016;28;20077;-80
2023/08/19 02:08:06;;;;;;;14.45;9.95;;;;;;;;;;4988808;28;20156;-78
2023/08/19 02:10:47;;;;;;;14.55;9.80;;;;;;;;;;4998420;28;20057;-79
2023/08/19 02:13:14;;;;;;;17.08;9.27;;;;;;;;;;4995261;28;20084;-79
2023/08/19 02:15:40;;;;;;;13.65;9.15;;;;;;;;;;4990605;28;20050;-80
2023/08/19 02:18:07;;;;;;;12.73;8.80;;;;;;;;;;4988581;28;20506;-80
2023/08/19 02:20:35;;;;;;;14.32;9.35;;;;;;;;;;4991402;28;20062;-80
2023/08/19 02:23:02;;;;;;;17.10;10.20;;;;;;;;;;4994563;28;20062;-78
2023/08/19 02:25:29;;;;;;;15.75;9.98;;;;;;;;;;5018832;28;20042;-80
2023/08/19 02:27:55;;;;;;;14.32;10.05;;;;;;;;;;5005975;28;21269;-80
2023/08/19 02:30:22;;;;;;;17.83;11.05;;;;;;;;;;5005123;28;20112;-80
2023/08/19 02:32:49;;;;;;;15.27;10.23;;;;;;;;;;5009716;28;20047;-79
2023/08/19 02:35:17;;;;;;;15.98;11.27;;;;;;;;;;4997103;28;20077;-82
2023/08/19 02:37:45;;;;;;;19.88;11.68;;;;;;;;;;5019492;28;20039;-79
2023/08/19 02:40:12;;;;;;;19.08;11.40;;;;;;;;;;5002428;28;20073;-80
2023/08/19 02:42:38;;;;;;;16.85;10.65;;;;;;;;;;5002430;28;20042;-79
2023/08/19 02:45:06;;;;;;;18.73;12.07;;;;;;;;;;5000183;28;20046;-78
2023/08/19 02:47:33;;;;;;;15.95;10.85;;;;;;;;;;5002399;28;20109;-78
2023/08/19 02:50:00;;;;;;;17.50;11.48;;;;;;;;;;5002286;28;20135;-80
2023/08/19 02:52:27;;;;;;;18.45;11.20;;;;;;;;;;5012685;28;20999;-79
2023/08/19 02:54:53;;;;;;;15.43;10.73;;;;;;;;;;4991266;28;20395;-80
2023/08/19 02:57:23;;;;;;;15.13;10.65;;;;;;;;;;5010540;28;20099;-80
2023/08/19 02:59:49;;;;;;;16.27;10.00;;;;;;;;;;5008569;28;20049;-80
2023/08/19 03:02:16;;;;;;;14.68;10.43;;;;;;;;;;4994456;28;20566;-79
2023/08/19 03:04:43;;;;;;;15.95;11.10;;;;;;;;;;5016336;28;20129;-81
2023/08/19 03:07:09;;;;;;;15.52;10.98;;;;;;;;;;5006095;28;20065;-81
2023/08/19 03:09:36;;;;;;;17.48;10.35;;;;;;;;;;5000067;28;20054;-78
2023/08/19 03:12:03;;;;;;;16.50;10.45;;;;;;;;;;5004071;28;20081;-79
2023/08/19 03:14:33;;;;;;;15.55;10.45;;;;;;;;;;5001385;28;20057;-80
2023/08/19 03:17:00;;;;;;;15.18;10.15;;;;;;;;;;4990656;28;22838;-79
2023/08/19 03:19:27;;;;;;;15.88;10.70;;;;;;;;;;4993624;28;20046;-80
2023/08/19 03:21:54;;;;;;;16.60;11.63;;;;;;;;;;4999474;28;20116;-81
2023/08/19 03:24:21;;;;;;;19.45;11.48;;;;;;;;;;5016400;28;20627;-80
2023/08/19 03:26:47;;;;;;;17.42;10.90;;;;;;;;;;4996558;28;20035;-81
2023/08/19 03:29:14;;;;;;;18.67;11.85;;;;;;;;;;4996816;28;20043;-81
2023/08/19 03:31:41;;;;;;;16.75;10.57;;;;;;;;;;5011263;28;20091;-80
2023/08/19 03:34:08;;;;;;;18.13;11.45;;;;;;;;;;5003867;28;20057;-79
2023/08/19 03:36:35;;;;;;;18.30;10.75;;;;;;;;;;4996568;28;20057;-79
2023/08/19 03:39:02;;;;;;;15.70;10.52;;;;;;;;;;4993996;28;20466;-79
2023/08/19 03:41:29;;;;;;;17.25;10.93;;;;;;;;;;5008219;28;20046;-79
2023/08/19 03:43:57;;;;;;;15.95;10.80;;;;;;;;;;4999425;28;20177;-79
2023/08/19 03:46:23;;;;;;;13.57;9.25;;;;;;;;;;4992941;28;20125;-78
2023/08/19 03:48:50;;;;;;;14.38;9.30;;;;;;;;;;5021271;28;20122;-79
2023/08/19 03:51:17;;;;;;;13.93;9.93;;;;;;;;;;5004227;28;20629;-79
2023/08/19 03:53:43;;;;;;;14.75;9.70;;;;;;;;;;4996016;28;20100;-81
2023/08/19 03:56:10;;;;;;;20.63;10.82;;;;;;;;;;4973075;28;20487;-81
2023/08/19 03:58:37;;;;;;;17.02;11.40;;;;;;;;;;5004016;28;20046;-78
2023/08/19 04:01:04;;;;;;;16.85;11.05;;;;;;;;;;4996339;28;20050;-80
2023/08/19 04:03:38;;;;;;;16.52;11.10;;;;;;;;;;5003346;28;20046;-79
2023/08/19 04:06:08;;;;;;;19.38;11.15;;;;;;;;;;5006060;28;20119;-81
2023/08/19 04:08:35;;;;;;;15.68;10.82;;;;;;;;;;5016354;28;20659;-79
2023/08/19 04:11:07;;;;;;;17.38;10.77;;;;;;;;;;5002059;28;20061;-79
2023/08/19 04:13:34;;;;;;;15.65;9.85;;;;;;;;;;4997241;28;20068;-78
2023/08/19 04:16:04;;;;;;;15.63;10.15;;;;;;;;;;5002117;28;20103;-77
2023/08/19 04:18:31;;;;;;;18.15;11.02;;;;;;;;;;4999169;28;20418;-79
2023/08/19 04:21:05;;;;;;;15.07;10.35;;;;;;;;;;4999200;28;20053;-77
2023/08/19 04:23:34;;;;;;;17.00;10.43;;;;;;;;;;5000413;28;20441;-78
2023/08/19 04:26:01;;;;;;;16.15;10.18;;;;;;;;;;4991984;28;20107;-78
2023/08/19 04:28:28;;;;;;;16.98;11.75;;;;;;;;;;4995593;28;20076;-79
2023/08/19 04:31:02;;;;;;;17.27;11.68;;;;;;;;;;5002696;28;20049;-79
2023/08/19 04:33:34;;;;;;;20.48;12.65;;;;;;;;;;5004640;28;20047;-79
2023/08/19 04:36:02;;;;;;;17.65;12.02;;;;;;;;;;4983879;28;20048;-78
2023/08/19 04:38:29;;;;;;;18.77;12.27;;;;;;;;;;4999390;28;20124;-79
2023/08/19 04:40:59;;;;;;;17.98;12.10;;;;;;;;;;4988455;28;20046;-79
2023/08/19 04:43:32;;;;;;;17.73;11.35;;;;;;;;;;5001384;28;20065;-79
2023/08/19 04:45:58;;;;;;;15.88;11.00;;;;;;;;;;4997262;28;20287;-78
2023/08/19 04:48:25;;;;;;;21.92;11.15;;;;;;;;;;4990112;28;20061;-79
2023/08/19 04:50:52;;;;;;;16.88;10.68;;;;;;;;;;4996406;28;20054;-78
2023/08/19 04:53:19;;;;;;;16.20;10.50;;;;;;;;;;4987583;28;20065;-79
2023/08/19 04:55:56;;;;;;;14.70;10.10;;;;;;;;;;4996487;28;20062;-79
2023/08/19 04:58:23;;;;;;;13.93;10.53;;;;;;;;;;4985864;28;20046;-80
2023/08/19 05:00:50;;;;;;;14.57;10.35;;;;;;;;;;5013327;28;20305;-79
2023/08/19 05:03:16;;;;;;;15.30;10.90;;;;;;;;;;4994968;28;20065;-78
2023/08/19 05:05:44;;;;;;;19.73;11.18;;;;;;;;;;4972016;28;20054;-79
2023/08/19 05:08:19;;;;;;;17.55;11.43;;;;;;;;;;4987930;28;20737;-79
2023/08/19 05:10:46;;;;;;;19.20;12.48;;;;;;;;;;4992235;28;20042;-80
2023/08/19 05:13:14;;;;;;;16.55;11.07;;;;;;;;;;5000874;28;20074;-80
2023/08/19 05:15:41;;;;;;;14.38;10.40;;;;;;;;;;5016523;28;20039;-81
2023/08/19 05:18:09;;;;;;;19.58;12.38;;;;;;;;;;5014089;28;20045;-80
2023/08/19 05:20:36;;;;;;;16.55;11.30;;;;;;;;;;4989455;28;20050;-79
2023/08/19 05:23:03;;;;;;;16.90;11.30;;;;;;;;;;4990902;28;20189;-80
2023/08/19 05:25:30;;;;;;;18.05;11.07;;;;;;;;;;5011148;28;20133;-80
2023/08/19 05:27:57;;;;;;;18.42;11.68;;;;;;;;;;4998594;28;20069;-80
2023/08/19 05:30:24;;;;;;;16.95;12.00;;;;;;;;;;4987496;28;20062;-79
2023/08/19 05:32:53;;;;;;;16.05;11.07;;;;;;;;;;5006864;28;20046;-79
2023/08/19 05:35:20;;;;;;;15.57;10.93;;;;;;;;;;4991275;28;20043;-81
2023/08/19 05:37:47;;;;;;;16.70;11.30;;;;;;;;;;5009803;28;20043;-78
2023/08/19 05:40:14;;;;;;;15.48;10.65;;;;;;;;;;4993482;28;20117;-82
2023/08/19 05:42:40;;;;;;;17.95;10.73;;;;;;;;;;4993525;28;20470;-77
2023/08/19 05:45:07;;;;;;;15.52;11.25;;;;;;;;;;4996696;28;20081;-77
2023/08/19 05:47:34;;;;;;;16.35;11.13;;;;;;;;;;4999039;28;20045;-78
2023/08/19 05:50:02;;;;;;;15.85;10.70;;;;;;;;;;4999072;28;20045;-78
2023/08/19 05:52:28;;;;;;;16.55;10.32;;;;;;;;;;5009068;28;20049;-78
2023/08/19 05:54:55;;;;;;;13.60;9.52;;;;;;;;;;5003640;28;20149;-77
2023/08/19 05:57:23;;;;;;;14.13;9.98;;;;;;;;;;5000082;28;20041;-78
2023/08/19 05:59:50;;;;;;;15.02;9.77;;;;;;;;;;5000970;28;20046;-78
2023/08/19 06:02:16;;;;;;;13.18;9.57;;;;;;;;;;5001551;28;21658;-78
2023/08/19 06:04:43;;;;;;;17.58;10.05;;;;;;;;;;4991022;28;20140;-79
2023/08/19 06:07:10;;;;;;;14.57;9.60;;;;;;;;;;5003255;28;20596;-79
2023/08/19 06:09:36;;;;;;;16.77;9.27;;;;;;;;;;4999705;28;20041;-79
2023/08/19 06:12:03;;;;;;;14.52;9.32;;;;;;;;;;4992427;28;20055;-79
2023/08/19 06:14:30;;;;;;;16.52;10.07;;;;;;;;;;4998459;28;20049;-79
2023/08/19 06:16:57;;;;;;;12.57;7.80;;;;;;;;;;5000190;28;20078;-79
2023/08/19 06:19:24;;;;;;;11.38;8.73;;;;;;;;;;4990570;28;20050;-80
2023/08/19 06:21:50;;;;;;;11.82;8.10;;;;;;;;;;4986437;28;20054;-79
2023/08/19 06:24:17;;;;;;;14.95;9.10;;;;;;;;;;4988828;28;20054;-79
2023/08/19 06:26:44;;;;;;;12.07;8.68;;;;;;;;;;5016618;28;20064;-79
2023/08/19 06:29:11;;;;;;;12.45;8.90;;;;;;;;;;4999131;28;20572;-79
2023/08/19 06:31:39;;;;;;;10.70;8.23;;;;;;;;;;5002707;28;20046;-79
2023/08/19 06:34:06;;;;;;;13.95;8.35;;;;;;;;;;4999925;28;20050;-79
2023/08/19 06:36:33;;;;;;;12.60;8.48;;;;;;;;;;5015077;28;20465;-79
2023/08/19 06:39:06;;;;;;;11.32;8.15;;;;;;;;;;4989273;28;20081;-80
2023/08/19 06:41:35;;;;;;;13.10;8.50;;;;;;;;;;4989270;28;20066;-78
2023/08/19 06:44:03;;;;;;;10.48;7.65;;;;;;;;;;4987581;28;20762;-77
2023/08/19 06:46:30;;;;;;;13.25;7.85;;;;;;;;;;4990934;28;20404;-78
2023/08/19 06:48:58;;;;;;;15.15;8.07;;;;;;;;;;5006724;28;20038;-77
2023/08/19 06:51:25;;;;;;;11.50;8.18;;;;;;;;;;5009330;28;20060;-79
2023/08/19 06:53:52;;;;;;;12.32;7.93;;;;;;;;;;5009291;28;21036;-76
2023/08/19 06:56:24;;;;;;;14.27;7.68;;;;;;;;;;5004580;28;20044;-78
2023/08/19 06:59:12;;;;;;;13.30;7.97;;;;;;;;;;5004466;28;20529;-78
2023/08/19 07:01:40;;;;;;;10.77;7.35;;;;;;;;;;4991255;28;20528;-78
2023/08/19 07:04:08;;;;;;;12.13;7.95;;;;;;;;;;5007652;28;20046;-79
2023/08/19 07:06:35;;;;;;;10.77;7.70;;;;;;;;;;5002515;28;20053;-79
2023/08/19 07:09:05;;;;;;;11.93;8.30;;;;;;;;;;5005535;28;20056;-77
2023/08/19 07:11:34;;;;;;;13.05;7.57;;;;;;;;;;5006116;28;20050;-79
2023/08/19 07:14:01;;;;;;;12.20;8.20;;;;;;;;;;4982734;28;20062;-79
2023/08/19 07:16:30;;;;;;;12.93;8.10;;;;;;;;;;5009169;28;20049;-79
2023/08/19 07:18:58;;;;;;;12.95;7.75;;;;;;;;;;5000625;28;20839;-78
2023/08/19 07:21:24;;;;;;;11.52;7.88;;;;;;;;;;5006103;28;20046;-79
2023/08/19 07:23:53;;;;;;;10.20;7.38;;;;;;;;;;4998460;28;20056;-79
2023/08/19 07:26:23;;;;;;;10.57;7.72;;;;;;;;;;4989018;28;21586;-78
2023/08/19 07:28:50;;;;;;;14.85;7.43;;;;;;;;;;4981400;28;20047;-79
2023/08/19 07:31:17;;;;;;;11.40;7.45;;;;;;;;;;4987947;28;20038;-78
2023/08/19 07:33:44;;;;;;;10.63;7.50;;;;;;;;;;5009532;28;20101;-83
2023/08/19 07:36:10;;;;;;;13.63;7.60;;;;;;;;;;5006587;28;20049;-82
2023/08/19 07:38:37;;;;;;;10.82;6.80;;;;;;;;;;5011014;28;20576;-80
2023/08/19 07:41:04;;;;;;;9.80;7.20;;;;;;;;;;5015480;28;20584;-83
2023/08/19 07:43:30;;;;;;;12.07;7.72;;;;;;;;;;5002688;28;20046;-81
2023/08/19 07:46:00;;;;;;;9.20;6.65;;;;;;;;;;5002688;28;20252;-81
2023/08/19 07:48:27;;;;;;;7.97;6.28;;;;;;;;;;4992485;28;20106;-79
2023/08/19 07:50:53;;;;;;;7.68;6.03;;;;;;;;;;5016646;28;20085;-82
2023/08/19 07:53:20;;;;;;;7.88;6.35;;;;;;;;;;5020640;28;20056;-82
2023/08/19 07:55:47;;;;;;;9.68;5.95;;;;;;;;;;5018143;28;20047;-83
2023/08/19 07:58:14;;;;;;;9.73;7.00;;;;;;;;;;5019866;28;20496;-82
2023/08/19 08:00:40;;;;;;;9.40;6.72;;;;;;;;;;5033722;28;20041;-81
2023/08/19 08:03:07;;;;;;;8.23;6.32;;;;;;;;;;5033585;28;20038;-80
2023/08/19 08:05:34;;;;;;;7.93;6.15;;;;;;;;;;5031375;28;20037;-85
2023/08/19 08:08:01;;;;;;;10.85;6.15;;;;;;;;;;5020366;28;20039;-80
2023/08/19 08:10:27;;;;;;;8.65;5.82;;;;;;;;;;5011189;28;20048;-79
2023/08/19 08:12:54;;;;;;;8.27;5.18;;;;;;;;;;5002214;28;20045;-79
2023/08/19 08:15:21;;;;;;;6.57;5.13;;;;;;;;;;4998263;28;20100;-79
2023/08/19 08:17:48;;;;;;;9.05;5.55;;;;;;;;;;5013610;28;20089;-77
2023/08/19 08:20:14;;;;;;;7.68;5.40;;;;;;;;;;5003461;28;20126;-78
2023/08/19 08:22:41;;;;;;;7.18;5.30;;;;;;;;;;5011937;28;20052;-81
2023/08/19 08:25:09;;;;;;;6.43;5.20;;;;;;;;;;5001039;28;20053;-80
2023/08/19 08:27:36;;;;;;;8.30;4.90;;;;;;;;;;4999113;28;20054;-80
2023/08/19 08:30:04;;;;;;;5.95;4.50;;;;;;;;;;4996164;28;20315;-82
2023/08/19 08:32:31;;;;;;;7.20;4.60;;;;;;;;;;5002328;28;20050;-82
2023/08/19 08:34:59;;;;;;;6.28;4.50;;;;;;;;;;4985551;28;20112;-81
2023/08/19 08:37:25;;;;;;;7.43;4.70;;;;;;;;;;4994454;28;20046;-81
2023/08/19 08:39:52;;;;;;;6.15;5.00;;;;;;;;;;4997766;28;20124;-80
2023/08/19 08:42:19;;;;;;;6.50;4.90;;;;;;;;;;4995021;28;20073;-82
2023/08/19 08:44:47;;;;;;;6.10;4.60;;;;;;;;;;5001263;28;20111;-79
2023/08/19 08:47:14;;;;;;;6.53;4.95;;;;;;;;;;5006156;28;20048;-81
2023/08/19 08:49:43;;;;;;;6.10;4.60;;;;;;;;;;4994356;28;20056;-83
2023/08/19 08:52:10;;;;;;;5.57;4.65;;;;;;;;;;5003241;28;20081;-78
2023/08/19 08:54:36;;;;;;;5.60;4.60;;;;;;;;;;5007664;28;20061;-80
2023/08/19 08:57:03;;;;;;;5.03;4.28;;;;;;;;;;4996267;28;20058;-80
2023/08/19 08:59:30;;;;;;;5.65;3.90;;;;;;;;;;4995402;28;20130;-81
2023/08/19 09:01:58;;;;;;;6.25;4.50;;;;;;;;;;4996908;28;20053;-77
2023/08/19 09:04:26;;;;;;;5.85;4.00;;;;;;;;;;5001983;28;20053;-78
2023/08/19 09:06:56;;;;;;;5.13;4.20;;;;;;;;;;4996853;28;20053;-79
2023/08/19 09:09:24;;;;;;;4.68;4.03;;;;;;;;;;5002585;28;20086;-80
2023/08/19 09:11:52;;;;;;;4.40;3.83;;;;;;;;;;4975580;28;20049;-81
2023/08/19 09:14:22;;;;;;;5.63;3.90;;;;;;;;;;4993092;28;20086;-80
2023/08/19 09:16:49;;;;;;;4.85;3.97;;;;;;;;;;5000204;28;20058;-80
2023/08/19 09:19:16;;;;;;;9.32;4.13;;;;;;;;;;5008686;28;20129;-81
2023/08/19 09:21:43;;;;;;;5.53;3.88;;;;;;;;;;5002711;28;20057;-81
2023/08/19 09:24:14;;;;;;;4.05;3.42;;;;;;;;;;4994350;28;20046;-80
2023/08/19 09:26:40;;;;;;;4.68;3.88;;;;;;;;;;5010647;28;20774;-80
2023/08/19 09:29:07;;;;;;;7.13;4.05;;;;;;;;;;5002752;28;20050;-80
2023/08/19 09:31:34;;;;;;;5.13;3.67;;;;;;;;;;4994471;28;20514;-81
2023/08/19 09:34:00;;;;;;;3.88;3.45;;;;;;;;;;5009085;28;20050;-80
2023/08/19 09:36:28;;;;;;;4.35;3.47;;;;;;;;;;5004813;28;20050;-80
2023/08/19 09:38:55;;;;;;;5.63;3.75;;;;;;;;;;4996983;28;20044;-80
2023/08/19 09:41:27;;;;;;;5.00;3.90;;;;;;;;;;4998558;28;20046;-81
2023/08/19 09:43:55;;;;;;;5.20;3.88;;;;;;;;;;5000057;28;20536;-81
2023/08/19 09:46:29;;;;;;;7.18;3.60;;;;;;;;;;5005549;28;20123;-81
2023/08/19 09:48:57;;;;;;;6.00;3.75;;;;;;;;;;4999175;28;20042;-79
2023/08/19 09:51:25;;;;;;;6.63;4.03;;;;;;;;;;4976838;28;20119;-82
2023/08/19 09:53:53;;;;;;;4.78;3.72;;;;;;;;;;5003257;28;20128;-82
2023/08/19 09:56:21;;;;;;;5.55;3.30;;;;;;;;;;4998082;28;20058;-80
2023/08/19 09:58:50;;;;;;;5.85;3.70;;;;;;;;;;5010037;28;20049;-80
2023/08/19 10:01:17;;;;;;;5.32;3.13;;;;;;;;;;5008689;28;21504;-78
2023/08/19 10:03:44;;;;;;;7.50;3.95;;;;;;;;;;5011441;28;20084;-80
2023/08/19 10:06:14;;;;;;;10.52;3.78;;;;;;;;;;5005616;28;20041;-80
2023/08/19 10:08:43;;;;;;;4.88;3.90;;;;;;;;;;5007096;28;20156;-79
2023/08/19 10:11:11;;;;;;;4.93;3.58;;;;;;;;;;4995037;28;20045;-78
2023/08/19 10:13:38;;;;;;;4.82;3.90;;;;;;;;;;4991873;28;20065;-80
2023/08/19 10:16:05;;;;;;;6.32;3.08;;;;;;;;;;4999655;28;20041;-80
2023/08/19 10:18:35;;;;;;;5.78;3.28;;;;;;;;;;5000169;28;20100;-80
2023/08/19 10:21:05;;;;;;;4.63;3.30;;;;;;;;;;5008318;28;20038;-82
2023/08/19 10:23:33;;;;;;;4.22;3.30;;;;;;;;;;5008992;28;20073;-79
2023/08/19 10:26:00;;;;;;;4.38;2.90;;;;;;;;;;5007907;28;20070;-81
2023/08/19 10:28:27;;;;;;;3.72;2.80;;;;;;;;;;5005635;28;20057;-80
2023/08/19 10:31:10;;;;;;;4.57;2.92;;;;;;;;;;5007627;28;20080;-79
2023/08/19 10:33:42;;;;;;;4.20;3.10;;;;;;;;;;4999008;28;20046;-82
2023/08/19 10:36:10;;;;;;;3.35;2.95;;;;;;;;;;5015791;28;20053;-78
2023/08/19 10:38:45;;;;;;;3.80;3.20;;;;;;;;;;5002561;28;20054;-79
2023/08/19 10:41:15;;;;;;;4.18;2.95;;;;;;;;;;4998673;28;20517;-79
2023/08/19 10:44:01;;;;;;;4.28;3.03;;;;;;;;;;4992379;28;20387;-79
2023/08/19 10:46:33;;;;;;;3.20;2.90;;;;;;;;;;4996988;28;20093;-79
2023/08/19 10:49:00;;;;;;;3.15;2.85;;;;;;;;;;5000314;28;20138;-79
2023/08/19 10:51:47;;;;;;;4.18;2.72;;;;;;;;;;5000726;28;20572;-78
2023/08/19 10:54:14;;;;;;;3.45;2.45;;;;;;;;;;4997655;28;20066;-80
2023/08/19 10:56:51;;;;;;;3.50;2.70;;;;;;;;;;5011415;28;20077;-79
2023/08/19 10:59:19;;;;;;;3.67;2.92;;;;;;;;;;5007597;28;20042;-79
2023/08/19 11:01:46;;;;;;;4.90;2.60;;;;;;;;;;5020868;28;20069;-80
2023/08/19 11:04:14;;;;;;;5.70;2.45;;;;;;;;;;4999369;28;20038;-80
2023/08/19 11:06:40;;;;;;;3.70;2.80;;;;;;;;;;5005548;28;20116;-80
2023/08/19 11:09:07;;;;;;;4.15;2.55;;;;;;;;;;5013430;28;20042;-82
2023/08/19 11:11:35;;;;;;;3.33;2.55;;;;;;;;;;5009477;28;20043;-79
2023/08/19 11:14:04;;;;;;;4.53;3.20;;;;;;;;;;5004871;28;20074;-80
2023/08/19 11:16:31;;;;;;;4.97;3.30;;;;;;;;;;5002771;28;20060;-78
2023/08/19 11:18:57;;;;;;;3.72;3.10;;;;;;;;;;4997611;28;20046;-80
2023/08/19 11:21:27;;;;;;;5.82;3.15;;;;;;;;;;5009937;28;20276;-80
2023/08/19 11:23:53;;;;;;;4.47;3.03;;;;;;;;;;5011481;28;20046;-79
2023/08/19 11:26:20;;;;;;;4.55;3.28;;;;;;;;;;5001567;28;20047;-80
2023/08/19 11:28:47;;;;;;;3.88;3.10;;;;;;;;;;4996264;28;20051;-79
2023/08/19 11:31:15;;;;;;;3.85;2.95;;;;;;;;;;5022563;28;20046;-79
2023/08/19 11:33:42;;;;;;;3.72;2.88;;;;;;;;;;5010057;28;20046;-81
2023/08/19 11:36:08;;;;;;;5.13;2.90;;;;;;;;;;5012434;28;20042;-79
2023/08/19 11:38:35;;;;;;;3.85;3.20;;;;;;;;;;5014138;28;20037;-80
2023/08/19 11:41:02;;;;;;;3.67;2.72;;;;;;;;;;4989793;28;20053;-78
2023/08/19 11:43:41;;;;;;;3.03;2.60;;;;;;;;;;5020932;28;20132;-78
2023/08/19 11:46:08;;;;;;;3.63;2.42;;;;;;;;;;5012620;28;20072;-82
2023/08/19 11:48:35;;;;;;;2.67;2.47;;;;;;;;;;5012379;28;20057;-80
2023/08/19 11:51:08;;;;;;;3.45;2.67;;;;;;;;;;5015181;28;20061;-79
2023/08/19 11:53:34;;;;;;;4.05;2.90;;;;;;;;;;5003853;28;20054;-80
2023/08/19 11:56:01;;;;;;;5.13;2.72;;;;;;;;;;5004524;28;20219;-80
2023/08/19 11:58:39;;;;;;;3.58;2.95;;;;;;;;;;5007622;28;20038;-79
2023/08/19 12:01:06;;;;;;;3.83;2.90;;;;;;;;;;4984964;28;20064;-81
2023/08/19 12:03:33;;;;;;;3.33;2.58;;;;;;;;;;5008278;28;20058;-79
2023/08/19 12:06:00;;;;;;;4.13;2.63;;;;;;;;;;5008060;28;20045;-78
2023/08/19 12:08:31;;;;;;;4.70;2.65;;;;;;;;;;5004912;28;20042;-80
2023/08/19 12:10:58;;;;;;;5.10;2.88;;;;;;;;;;5014846;28;20057;-79
2023/08/19 12:13:28;;;;;;;5.22;2.78;;;;;;;;;;4999274;28;20046;-78
2023/08/19 12:15:55;;;;;;;4.50;2.78;;;;;;;;;;4993692;28;20058;-78
2023/08/19 12:18:22;;;;;;;6.22;2.28;;;;;;;;;;5003729;28;20057;-81
2023/08/19 12:20:50;;;;;;;5.05;2.28;;;;;;;;;;4991850;28;20050;-80
2023/08/19 12:23:16;;;;;;;4.05;2.58;;;;;;;;;;5005296;28;20046;-80
2023/08/19 12:26:12;;;;;;;5.63;2.83;;;;;;;;;;4994475;28;20042;-81
2023/08/19 12:28:39;;;;;;;4.18;2.65;;;;;;;;;;5010098;28;20049;-78
2023/08/19 12:31:05;;;;;;;4.28;2.90;;;;;;;;;;5010821;28;20125;-79
2023/08/19 12:33:36;;;;;;;6.25;3.00;;;;;;;;;;4998808;28;21816;-82
2023/08/19 12:36:02;;;;;;;3.33;2.70;;;;;;;;;;4994954;28;20853;-82
2023/08/19 12:38:45;;;;;;;4.10;2.90;;;;;;;;;;5002851;28;20065;-82
2023/08/19 12:41:12;;;;;;;4.85;2.97;;;;;;;;;;5005339;28;20581;-81
2023/08/19 12:43:39;;;;;;;5.95;2.63;;;;;;;;;;5015626;28;20392;-81
2023/08/19 12:46:05;;;;;;;6.28;2.60;;;;;;;;;;5009363;28;20050;-82
2023/08/19 12:48:32;;;;;;;4.90;2.70;;;;;;;;;;5017556;28;20431;-80
2023/08/19 12:50:59;;;;;;;4.10;2.78;;;;;;;;;;5013211;28;20145;-81
2023/08/19 12:53:25;;;;;;;5.32;2.63;;;;;;;;;;5018142;28;20510;-79
2023/08/19 12:55:52;;;;;;;4.15;2.60;;;;;;;;;;5010035;28;20113;-80
2023/08/19 12:58:19;;;;;;;3.47;2.72;;;;;;;;;;5016488;28;20081;-81
2023/08/19 13:00:46;;;;;;;3.45;2.40;;;;;;;;;;5018500;28;20056;-79
2023/08/19 13:03:13;;;;;;;4.95;2.60;;;;;;;;;;5006139;28;20132;-82
2023/08/19 13:05:40;;;;;;;4.95;2.33;;;;;;;;;;5018527;28;20054;-81
2023/08/19 13:08:06;;;;;;;5.63;2.22;;;;;;;;;;5016593;28;20105;-81
2023/08/19 13:10:33;;;;;;;3.95;2.90;;;;;;;;;;5028443;28;20041;-81
2023/08/19 13:13:01;;;;;;;6.47;2.65;;;;;;;;;;5025138;28;20581;-82
2023/08/19 13:15:28;;;;;;;3.38;2.95;;;;;;;;;;5024574;28;20092;-81
2023/08/19 13:17:55;;;;;;;4.00;2.55;;;;;;;;;;5037296;28;20054;-82
2023/08/19 13:20:22;;;;;;;5.75;2.70;;;;;;;;;;5019734;28;20042;-83
2023/08/19 13:22:49;;;;;;;3.90;2.50;;;;;;;;;;5023452;28;20061;-85
2023/08/19 13:25:16;;;;;;;4.57;2.58;;;;;;;;;;5014906;28;20058;-84
2023/08/19 13:27:43;;;;;;;5.82;2.60;;;;;;;;;;5026026;28;20041;-84
2023/08/19 13:30:11;;;;;;;5.88;2.60;;;;;;;;;;5024634;28;20056;-82
2023/08/19 13:32:38;;;;;;;4.88;2.78;;;;;;;;;;5024388;28;20076;-82
2023/08/19 13:35:06;;;;;;;9.98;3.08;;;;;;;;;;5017781;28;20053;-80
2023/08/19 13:37:34;;;;;;;3.70;2.53;;;;;;;;;;5014125;28;20037;-80
2023/08/19 13:40:04;;;;;;;6.63;2.63;;;;;;;;;;5015811;28;20112;-80
2023/08/19 13:42:32;;;;;;;5.05;2.60;;;;;;;;;;5014993;28;20053;-81
2023/08/19 13:44:59;;;;;;;3.80;2.58;;;;;;;;;;5016801;28;20096;-82
2023/08/19 13:47:26;;;;;;;5.00;2.67;;;;;;;;;;5019058;28;20105;-81
2023/08/19 13:49:52;;;;;;;3.30;2.60;;;;;;;;;;5015735;28;20042;-80
2023/08/19 13:52:51;;;;;;;3.80;2.50;;;;;;;;;;5019835;28;20080;-83
2023/08/19 13:55:18;;;;;;;7.97;2.53;;;;;;;;;;4996668;28;21505;-83
2023/08/19 13:57:44;;;;;;;3.22;2.67;;;;;;;;;;5019538;28;20049;-81
2023/08/19 14:00:11;;;;;;;5.07;2.47;;;;;;;;;;4993427;28;20544;-81
2023/08/19 14:02:38;;;;;;;3.53;2.63;;;;;;;;;;5001006;28;20042;-81
2023/08/19 14:05:06;;;;;;;4.35;2.50;;;;;;;;;;5022580;28;20056;-79
2023/08/19 14:07:33;;;;;;;6.70;3.00;;;;;;;;;;5013458;28;20097;-80
2023/08/19 14:10:00;;;;;;;4.53;2.92;;;;;;;;;;5021701;28;20058;-83
2023/08/19 14:12:26;;;;;;;5.20;2.45;;;;;;;;;;5013032;28;20041;-82
2023/08/19 14:14:59;;;;;;;3.78;2.80;;;;;;;;;;5020773;28;20046;-82
2023/08/19 14:17:29;;;;;;;4.00;2.85;;;;;;;;;;5028148;28;20053;-81
2023/08/19 14:19:55;;;;;;;4.72;2.38;;;;;;;;;;5014916;28;20046;-80
2023/08/19 14:22:22;;;;;;;5.18;2.60;;;;;;;;;;5003835;28;20061;-80
2023/08/19 14:24:49;;;;;;;5.57;2.80;;;;;;;;;;5019581;28;20065;-81
2023/08/19 14:27:16;;;;;;;3.63;2.80;;;;;;;;;;5022513;28;20042;-80
2023/08/19 14:29:43;;;;;;;4.53;2.97;;;;;;;;;;5013874;28;21529;-83
2023/08/19 14:32:10;;;;;;;6.13;2.90;;;;;;;;;;5024453;28;20053;-80
2023/08/19 14:34:37;;;;;;;3.25;2.60;;;;;;;;;;5024327;28;20065;-81
2023/08/19 14:37:11;;;;;;;5.85;2.90;;;;;;;;;;5020683;28;20057;-80
2023/08/19 14:39:37;;;;;;;4.00;2.90;;;;;;;;;;5020340;28;20109;-77